Maritime Kelly Anne — 9V3274 — position and weather

sailwx.info

Track history (hours):
 
Tides and Currents Weather Stations Pressure Air Temp Water Temp Dewpoint Dewpoint Depression Visibility Wind Speed Wind Dir Waves Ship Positions

Maritime Kelly Anne

Last reported at 2017-Dec-16 04:04 UTC. Time now 2017-Dec-17 23:20 UTC.
Position N 30°58' E 122°38'.

Length 180 m; draft 8.1 m.

Type: Ship (hazmat cat C). MMSI: 566312000.

Date/timePositionNaut miles runAvg speedWind from/ knotsBaromVisibWave heightAir tempDewpointWater temp
2017-Dec-16 04:04N 30°58' E 122°38'111.7
2017-Dec-16 04:00N 30°58' E 122°37'612.4
2017-Dec-16 03:30N 30°59' E 122°30'611.5
2017-Dec-16 03:00N 31°01' E 122°23'611.4
2017-Dec-16 02:30N 31°02' E 122°17'510.7
2017-Dec-16 02:01N 31°03' E 122°11'5 9.0
2017-Dec-16 01:30N 31°04' E 122°06'4 7.3
2017-Dec-16 01:01N 31°05' E 122°02'4 8.3
2017-Dec-16 00:31N 31°06' E 121°57'4 7.9
2017-Dec-16 00:01N 31°09' E 121°53'5 9.5
2017-Dec-15 23:30N 31°12' E 121°49'611.7
2017-Dec-15 23:00N 31°16' E 121°45'510.4
2017-Dec-15 22:29N 31°20' E 121°41'510.7
2017-Dec-15 22:00N 31°23' E 121°35'510.8
2017-Dec-15 21:30N 31°26' E 121°30'510.2
2017-Dec-15 21:00N 31°29' E 121°26'612.1
2017-Dec-15 20:30N 31°33' E 121°20'1 1.8
2017-Dec-15 19:59N 31°34' E 121°20'0 0.0
2017-Dec-15 19:29N 31°34' E 121°20'0 0.0
2017-Dec-15 18:59N 31°34' E 121°20'0 0.0
2017-Dec-15 18:29N 31°34' E 121°20'0 0.0
2017-Dec-15 17:59N 31°34' E 121°20'0 0.0
2017-Dec-15 17:29N 31°34' E 121°20'0 0.3
2017-Dec-15 16:59N 31°34' E 121°20'0 0.1
2017-Dec-15 16:29N 31°34' E 121°20'0 0.0
2017-Dec-15 15:59N 31°34' E 121°20'0 0.0
2017-Dec-15 15:29N 31°34' E 121°20'0 0.0
2017-Dec-15 14:59N 31°34' E 121°20'0 0.0
2017-Dec-15 14:20N 31°34' E 121°20'0 0.1
2017-Dec-15 13:59N 31°34' E 121°20'0 0.2
2017-Dec-15 13:29N 31°34' E 121°20'0 0.1
2017-Dec-15 12:59N 31°34' E 121°20'0 0.1
2017-Dec-15 12:29N 31°34' E 121°20'0 0.1
2017-Dec-15 11:53N 31°34' E 121°20'0 0.0
2017-Dec-15 11:29N 31°34' E 121°20'0 0.0
2017-Dec-15 10:56N 31°34' E 121°20'0 0.1
2017-Dec-15 10:29N 31°34' E 121°20'0 0.1
2017-Dec-15 09:56N 31°34' E 121°20'0 0.1
2017-Dec-15 09:29N 31°34' E 121°20'1 1.5
2017-Dec-15 09:00N 31°33' E 121°19'713.6
2017-Dec-15 08:30N 31°38' E 121°14'713.7
2017-Dec-15 08:00N 31°43' E 121°08'713.4
2017-Dec-15 07:30N 31°46' E 121°01'28 9.5
2017-Dec-15 04:31N 32°01' E 120°33'010.0
2017-Dec-15 04:29N 32°01' E 120°32'510.0
2017-Dec-15 04:00N 32°02' E 120°27'  
2017-Dec-12 11:40N 32°00' E 120°23'2 8.9
2017-Dec-12 11:24N 32°02' E 120°25'4 8.6
2017-Dec-12 10:58N 32°02' E 120°30'4 9.4
2017-Dec-12 10:30N 32°01' E 120°35'23 7.3
2017-Dec-12 07:22N 31°47' E 120°57'3 8.8
2017-Dec-12 07:00N 31°47' E 121°00'4 8.0
2017-Dec-12 06:30N 31°45' E 121°05'4 9.1
2017-Dec-12 06:00N 31°42' E 121°09'5 9.3
2017-Dec-12 05:30N 31°39' E 121°13'5 9.4
2017-Dec-12 05:00N 31°36' E 121°17'5 9.5
2017-Dec-12 04:30N 31°33' E 121°21'5 9.9
2017-Dec-12 04:00N 31°30' E 121°26'5 9.7
2017-Dec-12 03:30N 31°26' E 121°29'4 7.1
2017-Dec-12 03:00N 31°24' E 121°33'3 6.6
2017-Dec-12 02:29N 31°23' E 121°36'5 9.8
2017-Dec-12 01:58N 31°20' E 121°41'4 9.4
2017-Dec-12 01:30N 31°18' E 121°46'  
Track history (hours):
 
Tides and Currents Weather Stations Pressure Air Temp Water Temp Dewpoint Dewpoint Depression Visibility Wind Speed Wind Dir Waves Ship Positions

Maritime Kelly Anne

Last reported at 2017-Dec-16 04:04 UTC. Time now 2017-Dec-17 23:20 UTC.
Position N 30°58' E 122°38'.

Length 180 m; draft 8.1 m.

Type: Ship (hazmat cat C). MMSI: 566312000.

Date/timePositionNaut miles runAvg speedWind from/ knotsBaromVisibWave heightAir tempDewpointWater temp
2017-Dec-16 04:04N 30°58' E 122°38'111.7
2017-Dec-16 04:00N 30°58' E 122°37'612.4
2017-Dec-16 03:30N 30°59' E 122°30'611.5
2017-Dec-16 03:00N 31°01' E 122°23'611.4
2017-Dec-16 02:30N 31°02' E 122°17'510.7
2017-Dec-16 02:01N 31°03' E 122°11'5 9.0
2017-Dec-16 01:30N 31°04' E 122°06'4 7.3
2017-Dec-16 01:01N 31°05' E 122°02'4 8.3
2017-Dec-16 00:31N 31°06' E 121°57'4 7.9
2017-Dec-16 00:01N 31°09' E 121°53'5 9.5
2017-Dec-15 23:30N 31°12' E 121°49'611.7
2017-Dec-15 23:00N 31°16' E 121°45'510.4
2017-Dec-15 22:29N 31°20' E 121°41'510.7
2017-Dec-15 22:00N 31°23' E 121°35'510.8
2017-Dec-15 21:30N 31°26' E 121°30'510.2
2017-Dec-15 21:00N 31°29' E 121°26'612.1
2017-Dec-15 20:30N 31°33' E 121°20'1 1.8
2017-Dec-15 19:59N 31°34' E 121°20'0 0.0
2017-Dec-15 19:29N 31°34' E 121°20'0 0.0
2017-Dec-15 18:59N 31°34' E 121°20'0 0.0
2017-Dec-15 18:29N 31°34' E 121°20'0 0.0
2017-Dec-15 17:59N 31°34' E 121°20'0 0.0
2017-Dec-15 17:29N 31°34' E 121°20'0 0.3
2017-Dec-15 16:59N 31°34' E 121°20'0 0.1
2017-Dec-15 16:29N 31°34' E 121°20'0 0.0
2017-Dec-15 15:59N 31°34' E 121°20'0 0.0
2017-Dec-15 15:29N 31°34' E 121°20'0 0.0
2017-Dec-15 14:59N 31°34' E 121°20'0 0.0
2017-Dec-15 14:20N 31°34' E 121°20'0 0.1
2017-Dec-15 13:59N 31°34' E 121°20'0 0.2
2017-Dec-15 13:29N 31°34' E 121°20'0 0.1
2017-Dec-15 12:59N 31°34' E 121°20'0 0.1
2017-Dec-15 12:29N 31°34' E 121°20'0 0.1
2017-Dec-15 11:53N 31°34' E 121°20'0 0.0
2017-Dec-15 11:29N 31°34' E 121°20'0 0.0
2017-Dec-15 10:56N 31°34' E 121°20'0 0.1
2017-Dec-15 10:29N 31°34' E 121°20'0 0.1
2017-Dec-15 09:56N 31°34' E 121°20'0 0.1
2017-Dec-15 09:29N 31°34' E 121°20'1 1.5
2017-Dec-15 09:00N 31°33' E 121°19'713.6
2017-Dec-15 08:30N 31°38' E 121°14'713.7
2017-Dec-15 08:00N 31°43' E 121°08'713.4
2017-Dec-15 07:30N 31°46' E 121°01'28 9.5
2017-Dec-15 04:31N 32°01' E 120°33'010.0
2017-Dec-15 04:29N 32°01' E 120°32'510.0
2017-Dec-15 04:00N 32°02' E 120°27'  
2017-Dec-12 11:40N 32°00' E 120°23'2 8.9
2017-Dec-12 11:24N 32°02' E 120°25'4 8.6
2017-Dec-12 10:58N 32°02' E 120°30'4 9.4
2017-Dec-12 10:30N 32°01' E 120°35'23 7.3
2017-Dec-12 07:22N 31°47' E 120°57'3 8.8
2017-Dec-12 07:00N 31°47' E 121°00'4 8.0
2017-Dec-12 06:30N 31°45' E 121°05'4 9.1
2017-Dec-12 06:00N 31°42' E 121°09'5 9.3
2017-Dec-12 05:30N 31°39' E 121°13'5 9.4
2017-Dec-12 05:00N 31°36' E 121°17'5 9.5
2017-Dec-12 04:30N 31°33' E 121°21'5 9.9
2017-Dec-12 04:00N 31°30' E 121°26'5 9.7
2017-Dec-12 03:30N 31°26' E 121°29'4 7.1
2017-Dec-12 03:00N 31°24' E 121°33'3 6.6
2017-Dec-12 02:29N 31°23' E 121°36'5 9.8
2017-Dec-12 01:58N 31°20' E 121°41'4 9.4
2017-Dec-12 01:30N 31°18' E 121°46'  

Dump ship's entire track history